Aérodrome :
LOGIN :

S'inscrire | Disclaimer

   EN    FR    IT 

 










Légende :    VFR   VFR Marginal   IFR   IFR Intensif   IFR Très Intensif
Visi : 
Plafond : 
>= 8 km
>= 3000ft
5 à 8 km
1000 à 3000 ft
1500m à 5 km
500 à 1000 ft
800 à 1500m
200 à 500 ft
< 800m
< 200 ft
Symboles :   Orages  Brouillard  Fortes neiges  Fortes précipitations  Vent > 20 kt
SIGMETs :   Divers  Orages  Givrage  Turbulence  Onde Orograph.  Cendres Volcan.






- Altitude de l'aérodrome : 1708 ft
- Code IATA : SJJ


LQSA - Sarajevo

DERNIER METAR :
  • 281000Z VRB01KT 9999 FEW040 BKN050 04/04 Q1011 NOSIG

METARs EXPIRÉS :
  • 280930Z VRB02KT 9999 SCT040 BKN050 03/03 Q1010 BECMG 30012KT
  • 280900Z VRB02KT 9999 FEW005 SCT025 BKN050 02/02 Q1010 BECMG 30012KT
  • 280830Z 09004KT 020V120 9999 FEW010 SCT040 BKN055 01/01 Q1009 BECMG 30012KT
  • 280800Z 12006KT 7000 -SN FEW015 SCT025 BKN045 01/01 Q1009 RESN BECMG 30012KT
  • 280730Z 33006KT 290V360 2500 SN SCT001 BKN004 OVC020 01/01 Q1009

TAF COR TAF LQSA
Valide du 28 à 06h jusqu'au 29 à 06h UTC


280500Z 2806/2906 30007KT 9999 BKN050 TX04/2806Z TNM05/2905Z
TEMPO 2806/2814 36012KT 4000 SNRA BKN007 BKN025
PROB30
TEMPO 2806/2809 33015G25KT 2000 SHSN SCT004 FEW030TCU BKN035
PROB40
TEMPO 2902/2906 2000 BR BKN004



MET'MAP, la Météo Aéronautique d'un coup d'oeil ! - Copyright ORBIFLY Décembre 2007 - Disclaimer

ORBIFLY MET'MAP TEAM :

Programmation & Développement : Alexandra Zaïnal
Sur une idée originale de : Baudouin d'Aumeries
Assistance à la programmation : Marc-Olivier Méhu
Soutien technique & logistique : Manuel Goepfert

Contact : metmap@orbifly.com




SOURCES & CREDITS :

   NOAA